Kent, Illinois
Current Conditions -  °F | °C
As of 11:55 AM on Monday 22 Dec 2014 (Local Time) from KFEP Reporting Station
Light Rain Light Rain  
Wind Chill: -4°   Ceiling: 4800
Heat Index:   Visibility: 2.5mi
Dew Point:   Wind: 14mph
Humidity: 93%   Direction: 110°ESE
Pressure: 29.76"   Gusts: NA
Location:  42.31°N, 89.9°W
Report Text: KFEP 221755Z AUTO 11012KT 2 1/2SM -RA SCT038 BKN048 OVC050 01/00 A2976 RMK AO2 P0001 60001 T00100000 10010 20000
Loading
Personal Weather Stations






























Interactive Weather Map New forecast layout! Learn more

10-Day Weather Forecast

Advertisements
Track Severe Weather on mobile